Time;durP1;ratioP1;P1;durP2;ratioP2;P2;SDS_P1;SDS_P2;PMS_P1;PMS_P2;Temp;Humidity;BMP_temperature;BMP_pressure;BME280_temperature;BME280_humidity;BME280_pressure;Samples;Min_cycle;Max_cycle;Signal;HPM_P1;HPM_P2
2024/01/12 00:00:36;;;;;;;9.25;1.02;;;;;;;5.25;77.50;102460.50;5047275;28;20080;-46
2024/01/12 00:03:04;;;;;;;5.00;1.15;;;;;;;5.26;76.81;102454.56;5044268;28;20056;-46
2024/01/12 00:05:31;;;;;;;7.72;1.23;;;;;;;5.28;76.75;102463.25;5033217;28;20045;-53
2024/01/12 00:07:58;;;;;;;2.42;1.00;;;;;;;5.27;75.78;102466.63;5046700;28;20137;-45
2024/01/12 00:10:24;;;;;;;8.70;1.23;;;;;;;5.27;76.12;102458.94;5042413;28;20052;-52
2024/01/12 00:12:52;;;;;;;4.07;1.40;;;;;;;5.27;75.90;102459.78;5051584;28;20041;-44
2024/01/12 00:15:19;;;;;;;13.93;1.17;;;;;;;5.30;76.98;102460.78;5044615;28;20063;-49
2024/01/12 00:17:46;;;;;;;5.55;1.02;;;;;;;5.29;77.13;102459.88;5041935;28;20098;-48
2024/01/12 00:20:13;;;;;;;4.20;1.15;;;;;;;5.30;77.02;102460.78;5047061;28;20072;-43
2024/01/12 00:22:40;;;;;;;4.60;2.13;;;;;;;5.32;76.31;102459.16;5049290;28;20037;-50
2024/01/12 00:25:07;;;;;;;10.85;1.83;;;;;;;5.32;75.76;102461.75;5050050;28;20049;-50
2024/01/12 00:27:33;;;;;;;4.10;1.30;;;;;;;5.30;76.71;102464.22;5044181;28;20041;-52
2024/01/12 00:30:00;;;;;;;6.65;1.63;;;;;;;5.32;76.88;102460.06;5055114;28;20512;-45
2024/01/12 00:32:27;;;;;;;6.70;1.52;;;;;;;5.27;76.65;102452.09;5041305;28;20070;-48
2024/01/12 00:34:54;;;;;;;4.40;1.77;;;;;;;5.30;76.75;102456.50;5051004;28;20072;-47
2024/01/12 00:37:20;;;;;;;4.50;1.85;;;;;;;5.31;75.42;102458.31;5051590;28;20095;-43
2024/01/12 00:39:47;;;;;;;3.78;1.33;;;;;;;5.31;75.83;102462.53;5048423;28;20060;-53
2024/01/12 00:42:14;;;;;;;4.80;2.22;;;;;;;5.32;75.89;102465.22;5049906;28;20075;-48
2024/01/12 00:44:40;;;;;;;5.40;1.17;;;;;;;5.31;76.61;102463.44;5049005;28;20037;-44
2024/01/12 00:47:07;;;;;;;5.68;1.20;;;;;;;5.31;76.14;102463.44;5054806;28;20581;-48
2024/01/12 00:49:35;;;;;;;3.85;1.38;;;;;;;5.30;76.60;102460.78;5039863;28;20048;-45
2024/01/12 00:52:02;;;;;;;6.20;1.05;;;;;;;5.33;76.44;102466.09;5049694;28;20140;-47
2024/01/12 00:54:29;;;;;;;7.97;1.45;;;;;;;5.32;75.61;102460.06;5043321;28;20048;-47
2024/01/12 00:56:55;;;;;;;2.45;0.77;;;;;;;5.31;76.37;102460.88;5041728;28;20052;-46
2024/01/12 00:59:24;;;;;;;6.43;1.52;;;;;;;5.27;76.63;102454.66;5041150;28;20068;-53
2024/01/12 01:01:56;;;;;;;4.65;1.23;;;;;;;5.27;76.67;102451.22;5048187;28;20049;-48
2024/01/12 01:04:25;;;;;;;5.10;1.48;;;;;;;5.25;76.07;102453.69;5043312;28;20126;-43
2024/01/12 01:06:53;;;;;;;7.63;1.25;;;;;;;5.31;76.66;102458.31;5047105;28;20180;-46
2024/01/12 01:09:21;;;;;;;7.60;1.50;;;;;;;5.31;75.47;102453.16;5048082;28;20047;-42
2024/01/12 01:11:52;;;;;;;8.98;1.50;;;;;;;5.33;76.30;102451.56;5045595;28;20037;-52
2024/01/12 01:14:24;;;;;;;7.72;1.85;;;;;;;5.34;76.00;102457.59;5048613;28;20513;-50
2024/01/12 01:16:53;;;;;;;10.30;1.67;;;;;;;5.31;76.68;102453.16;5050557;28;20041;-48
2024/01/12 01:19:21;;;;;;;13.25;1.75;;;;;;;5.33;76.11;102448.97;5047081;28;20122;-49
2024/01/12 01:21:49;;;;;;;5.45;1.85;;;;;;;5.33;75.84;102451.56;5048492;28;20140;-47
2024/01/12 01:24:17;;;;;;;4.47;2.00;;;;;;;5.33;75.40;102448.97;5055693;28;20056;-48
2024/01/12 01:26:44;;;;;;;6.97;1.23;;;;;;;5.32;75.50;102449.78;5052130;28;20135;-49
2024/01/12 01:29:12;;;;;;;5.10;1.02;;;;;;;5.32;75.44;102447.22;5048384;28;20135;-46
2024/01/12 01:31:40;;;;;;;5.90;2.03;;;;;;;5.34;76.14;102443.03;5052654;28;20045;-51
2024/01/12 01:34:07;;;;;;;6.20;1.58;;;;;;;5.34;76.19;102443.03;5044026;28;20053;-48
2024/01/12 01:36:35;;;;;;;2.75;1.00;;;;;;;5.33;76.71;102445.53;5042253;28;20765;-47
2024/01/12 01:39:03;;;;;;;3.63;1.05;;;;;;;5.35;75.42;102434.56;5051301;28;20083;-49
2024/01/12 01:41:30;;;;;;;11.98;1.35;;;;;;;5.35;76.14;102441.38;5054900;28;20056;-48
2024/01/12 01:43:58;;;;;;;6.55;1.48;;;;;;;5.35;75.24;102437.13;5041493;28;20108;-45
2024/01/12 01:46:27;;;;;;;3.60;1.45;;;;;;;5.35;76.68;102436.22;5045434;28;20107;-50
2024/01/12 01:48:55;;;;;;;9.52;1.52;;;;;;;5.33;76.50;102436.13;5043293;28;20085;-51
2024/01/12 01:51:24;;;;;;;12.93;1.98;;;;;;;5.33;75.31;102425.00;5051169;28;20049;-47
2024/01/12 01:53:52;;;;;;;8.05;1.65;;;;;;;5.33;76.17;102428.41;5046036;28;20045;-48
2024/01/12 01:56:22;;;;;;;5.93;1.95;;;;;;;5.35;76.28;102428.50;5052649;28;20509;-44
2024/01/12 01:58:50;;;;;;;4.22;1.15;;;;;;;5.30;76.45;102429.94;5045557;28;20049;-44
2024/01/12 02:01:18;;;;;;;5.80;1.48;;;;;;;5.31;75.92;102427.47;5045875;28;20048;-53
2024/01/12 02:03:46;;;;;;;8.00;1.42;;;;;;;5.31;75.94;102422.31;5041825;28;20049;-50
2024/01/12 02:06:13;;;;;;;6.07;1.13;;;;;;;5.32;75.74;102423.19;5043590;28;20471;-47
2024/01/12 02:08:40;;;;;;;10.10;1.48;;;;;;;5.30;76.64;102428.25;5052707;28;20053;-47
2024/01/12 02:11:09;;;;;;;9.27;1.08;;;;;;;5.30;75.95;102422.22;5048468;28;20045;-47
2024/01/12 02:13:35;;;;;;;10.98;2.47;;;;;;;5.30;76.30;102425.66;5047048;28;20056;-48
2024/01/12 02:16:02;;;;;;;6.82;2.15;;;;;;;5.31;76.29;102422.31;5042934;28;20045;-50
2024/01/12 02:18:33;;;;;;;9.38;1.23;;;;;;;5.28;75.55;102419.56;5047331;28;20179;-47
2024/01/12 02:21:00;;;;;;;3.35;0.70;;;;;;;5.29;76.31;102418.75;5046659;28;20080;-44
2024/01/12 02:23:26;;;;;;;5.20;2.25;;;;;;;5.30;75.41;102420.53;5042066;28;20051;-47
2024/01/12 02:25:53;;;;;;;6.13;1.98;;;;;;;5.29;75.80;102413.63;5042897;28;20420;-46
2024/01/12 02:28:21;;;;;;;8.23;2.28;;;;;;;5.26;75.50;102403.16;5045868;28;20052;-49
2024/01/12 02:30:47;;;;;;;8.18;1.15;;;;;;;5.27;76.41;102408.41;5047541;28;20064;-44
2024/01/12 02:33:14;;;;;;;10.40;1.92;;;;;;;5.25;75.79;102406.53;5044105;28;20129;-46
2024/01/12 02:35:42;;;;;;;5.03;1.65;;;;;;;5.27;75.38;102410.97;5045739;28;20417;-45
2024/01/12 02:38:09;;;;;;;9.18;1.17;;;;;;;5.24;76.55;102399.63;5049812;28;20148;-44
2024/01/12 02:40:36;;;;;;;10.98;2.03;;;;;;;5.25;76.28;102406.53;5043628;28;20053;-44
2024/01/12 02:43:03;;;;;;;4.20;1.15;;;;;;;5.25;75.36;102406.53;5052361;28;20045;-47
2024/01/12 02:45:30;;;;;;;7.15;1.10;;;;;;;5.26;75.12;102408.31;5048303;28;20056;-49
2024/01/12 02:47:56;;;;;;;6.82;1.10;;;;;;;5.24;76.05;102407.34;5045336;28;20048;-45
2024/01/12 02:50:23;;;;;;;3.95;1.25;;;;;;;5.27;75.46;102407.53;5048734;28;20056;-45
2024/01/12 02:52:50;;;;;;;7.13;0.75;;;;;;;5.27;75.07;102407.53;5042919;28;20045;-47
2024/01/12 02:55:17;;;;;;;5.53;1.02;;;;;;;5.27;75.89;102416.09;5048188;28;20059;-44
2024/01/12 02:57:44;;;;;;;9.52;0.75;;;;;;;5.28;75.91;102422.16;5053357;28;20053;-43
2024/01/12 03:00:11;;;;;;;6.80;1.13;;;;;;;5.28;75.96;102415.31;5041013;28;20508;-50
2024/01/12 03:02:38;;;;;;;8.70;1.33;;;;;;;5.32;74.84;102413.81;5045548;28;20053;-41
2024/01/12 03:05:05;;;;;;;4.95;1.08;;;;;;;5.31;75.45;102411.16;5045470;28;20045;-48
2024/01/12 03:07:32;;;;;;;6.03;1.00;;;;;;;5.25;75.42;102398.84;5048284;28;20052;-49
2024/01/12 03:09:59;;;;;;;4.88;0.93;;;;;;;5.28;75.35;102406.72;5048961;28;20056;-45
2024/01/12 03:12:26;;;;;;;6.65;0.98;;;;;;;5.27;75.19;102402.38;5039283;28;20063;-47
2024/01/12 03:14:53;;;;;;;11.65;1.42;;;;;;;5.28;74.85;102396.44;5046083;28;20044;-50
2024/01/12 03:17:21;;;;;;;4.53;1.55;;;;;;;5.23;74.02;102401.31;5047440;28;20049;-45
2024/01/12 03:19:48;;;;;;;9.00;1.63;;;;;;;5.27;75.26;102402.38;5044397;28;20532;-47
2024/01/12 03:22:15;;;;;;;3.10;0.90;;;;;;;5.21;73.92;102400.34;5038538;28;20052;-44
2024/01/12 03:24:41;;;;;;;6.05;0.85;;;;;;;5.21;74.83;102386.63;5042022;28;20655;-49
2024/01/12 03:27:08;;;;;;;9.20;1.40;;;;;;;5.23;73.56;102395.28;5049752;28;20045;-45
2024/01/12 03:29:35;;;;;;;6.70;1.13;;;;;;;5.26;74.33;102398.03;5050148;28;20494;-49
2024/01/12 03:32:02;;;;;;;6.35;0.73;;;;;;;5.27;74.73;102395.56;5040046;28;20045;-48
2024/01/12 03:34:29;;;;;;;5.75;1.00;;;;;;;5.27;73.79;102389.53;5041026;28;20061;-48
2024/01/12 03:36:57;;;;;;;2.88;0.82;;;;;;;5.22;74.09;102398.66;5048355;28;20073;-49
2024/01/12 03:39:26;;;;;;;8.18;1.20;;;;;;;5.26;74.69;102391.22;5044874;28;20063;-49
2024/01/12 03:41:53;;;;;;;4.55;1.13;;;;;;;5.26;73.76;102395.47;5044733;28;20517;-45
2024/01/12 03:44:21;;;;;;;11.32;1.23;;;;;;;5.27;74.96;102394.69;5043718;28;20045;-46
2024/01/12 03:46:49;;;;;;;6.10;1.02;;;;;;;5.27;73.82;102394.69;5038403;28;20048;-49
2024/01/12 03:49:19;;;;;;;10.20;1.15;;;;;;;5.27;74.50;102392.97;5045613;28;20673;-50
2024/01/12 03:51:53;;;;;;;5.03;0.93;;;;;;;5.27;73.80;102394.69;5048118;28;20045;-46
2024/01/12 03:54:21;;;;;;;6.72;1.00;;;;;;;5.28;74.98;102392.16;5046994;28;20048;-48
2024/01/12 03:56:48;;;;;;;7.78;1.65;;;;;;;5.21;74.05;102395.22;5045282;28;20055;-48
2024/01/12 03:59:16;;;;;;;3.58;0.70;;;;;;;5.20;74.62;102392.56;5046091;28;20060;-46
2024/01/12 04:01:44;;;;;;;3.30;1.92;;;;;;;5.24;73.69;102394.50;5047911;28;20394;-48
2024/01/12 04:04:11;;;;;;;7.20;1.77;;;;;;;5.26;74.32;102393.78;5047782;28;20592;-48
2024/01/12 04:06:39;;;;;;;6.55;1.27;;;;;;;5.27;75.17;102394.69;5050128;28;20164;-48
2024/01/12 04:09:36;;;;;;;8.05;0.82;;;;;;;5.23;74.89;102387.56;5039182;28;20041;-51
2024/01/12 04:12:03;;;;;;;6.05;1.17;;;;;;;5.25;74.14;102392.03;5049696;28;20580;-48
2024/01/12 04:14:31;;;;;;;4.97;1.17;;;;;;;5.20;73.73;102387.41;5050160;28;20102;-50
2024/01/12 04:17:02;;;;;;;2.03;0.65;;;;;;;5.25;74.01;102386.00;5044400;28;20110;-43
2024/01/12 04:19:28;;;;;;;8.27;1.27;;;;;;;5.25;74.23;102386.88;5052122;28;20056;-50
2024/01/12 04:21:55;;;;;;;6.85;1.25;;;;;;;5.24;74.30;102379.09;5047276;28;20045;-48
2024/01/12 04:24:22;;;;;;;2.33;0.98;;;;;;;5.15;74.19;102387.16;5046377;28;20049;-49
2024/01/12 04:26:48;;;;;;;5.63;0.90;;;;;;;5.21;73.41;102381.47;5051097;28;20131;-48
2024/01/12 04:29:15;;;;;;;2.45;0.95;;;;;;;5.23;74.60;102382.44;5049042;28;20080;-49
2024/01/12 04:31:43;;;;;;;4.03;0.38;;;;;;;5.19;73.48;102380.47;5048764;28;20053;-48
2024/01/12 04:34:10;;;;;;;0.85;0.65;;;;;;;5.17;74.09;102376.97;5047160;28;20055;-47
2024/01/12 04:36:37;;;;;;;5.25;0.95;;;;;;;5.16;74.52;102370.91;5049047;28;20076;-53
2024/01/12 04:39:04;;;;;;;3.22;0.77;;;;;;;5.19;74.34;102359.94;5049441;28;20045;-44
2024/01/12 04:41:31;;;;;;;5.45;0.85;;;;;;;5.20;73.81;102366.88;5043225;28;20063;-48
2024/01/12 04:43:58;;;;;;;6.15;1.17;;;;;;;5.15;73.57;102356.31;5044492;28;20040;-47
2024/01/12 04:46:24;;;;;;;2.97;0.50;;;;;;;5.16;73.52;102359.78;5050033;28;20052;-48
2024/01/12 04:48:51;;;;;;;3.90;1.58;;;;;;;5.19;73.75;102365.06;5051172;28;20080;-47
2024/01/12 04:51:18;;;;;;;4.30;1.83;;;;;;;5.19;74.32;102355.69;5054306;28;20047;-47
2024/01/12 04:53:45;;;;;;;2.47;1.13;;;;;;;5.19;74.49;102354.78;5050156;28;20045;-48
2024/01/12 04:56:11;;;;;;;4.72;1.08;;;;;;;5.14;74.48;102355.41;5043229;28;20122;-49
2024/01/12 04:58:40;;;;;;;4.97;0.50;;;;;;;5.20;74.30;102356.59;5054758;28;20045;-50
2024/01/12 05:01:08;;;;;;;4.75;1.08;;;;;;;5.19;74.59;102354.78;5050247;28;20072;-46
2024/01/12 05:03:35;;;;;;;6.30;0.82;;;;;;;5.19;74.29;102360.81;5042467;28;20050;-43
2024/01/12 05:06:01;;;;;;;7.45;0.88;;;;;;;5.20;74.93;102356.59;5049756;28;20048;-50
2024/01/12 05:08:28;;;;;;;4.47;0.85;;;;;;;5.20;74.87;102356.59;5060135;28;20136;-48
2024/01/12 05:10:55;;;;;;;7.97;0.93;;;;;;;5.17;74.59;102353.84;5052727;28;20041;-44
2024/01/12 05:13:21;;;;;;;5.03;1.02;;;;;;;5.22;73.52;102360.09;5047347;28;20051;-50
2024/01/12 05:15:48;;;;;;;4.20;0.68;;;;;;;5.24;74.33;102353.38;5046828;28;20060;-46
2024/01/12 05:18:15;;;;;;;4.20;0.75;;;;;;;5.21;74.77;102355.78;5047855;28;20045;-46
2024/01/12 05:20:42;;;;;;;4.32;1.05;;;;;;;5.22;73.85;102352.41;5045276;28;20553;-46
2024/01/12 05:23:09;;;;;;;2.28;0.73;;;;;;;5.16;74.81;102349.50;5047964;28;20052;-48
2024/01/12 05:25:36;;;;;;;1.83;0.60;;;;;;;5.18;74.62;102350.47;5048480;28;20057;-47
2024/01/12 05:28:04;;;;;;;3.15;1.30;;;;;;;5.19;74.48;102344.50;5049301;28;20049;-48
2024/01/12 05:30:32;;;;;;;5.05;0.82;;;;;;;5.19;74.93;102349.66;5047497;28;20191;-49
2024/01/12 05:32:59;;;;;;;5.40;0.85;;;;;;;5.14;74.12;102337.44;5048430;28;20103;-46
2024/01/12 05:35:25;;;;;;;6.78;0.90;;;;;;;5.16;74.88;102344.38;5053718;28;20068;-47
2024/01/12 05:37:52;;;;;;;7.05;1.55;;;;;;;5.14;73.97;102347.72;5045748;28;20041;-48
2024/01/12 05:40:19;;;;;;;1.45;0.60;;;;;;;5.13;75.08;102350.19;5048346;28;20667;-48
2024/01/12 05:42:46;;;;;;;4.70;1.38;;;;;;;5.14;75.12;102351.97;5047618;28;20056;-45
2024/01/12 05:45:12;;;;;;;3.53;0.77;;;;;;;5.14;73.67;102347.72;5044339;28;20058;-45
2024/01/12 05:47:41;;;;;;;2.88;0.52;;;;;;;5.10;74.22;102352.59;5045714;28;20053;-52
2024/01/12 05:50:08;;;;;;;6.28;1.05;;;;;;;5.12;74.84;102354.47;5049003;28;20045;-49
2024/01/12 05:52:35;;;;;;;3.38;1.02;;;;;;;5.14;75.06;102352.84;5049004;28;20041;-46
2024/01/12 05:55:02;;;;;;;5.38;0.80;;;;;;;5.17;74.25;102351.28;5049882;28;20132;-48
2024/01/12 05:57:31;;;;;;;3.65;1.05;;;;;;;5.16;74.44;102346.94;5053308;28;20121;-48
2024/01/12 05:59:57;;;;;;;3.80;1.00;;;;;;;5.16;74.48;102345.22;5044489;28;20409;-44
2024/01/12 06:02:24;;;;;;;6.03;0.80;;;;;;;5.19;75.09;102342.84;5046465;28;20493;-48
2024/01/12 06:04:52;;;;;;;4.70;0.70;;;;;;;5.20;74.91;102341.16;5039368;28;20068;-49
2024/01/12 06:07:19;;;;;;;4.15;0.88;;;;;;;5.21;74.79;102345.50;5047406;28;20049;-48
2024/01/12 06:09:45;;;;;;;7.82;0.68;;;;;;;5.21;74.92;102342.94;5044555;28;20045;-46
2024/01/12 06:12:12;;;;;;;3.75;0.93;;;;;;;5.20;74.28;102341.16;5045385;28;20053;-47
2024/01/12 06:14:39;;;;;;;4.38;1.00;;;;;;;5.21;74.76;102341.25;5038678;28;20049;-50
2024/01/12 06:17:06;;;;;;;2.80;0.75;;;;;;;5.21;75.71;102342.94;5052243;28;20052;-47
2024/01/12 06:19:33;;;;;;;7.97;1.00;;;;;;;5.21;75.01;102337.78;5048200;28;20045;-47
2024/01/12 06:22:00;;;;;;;0.93;0.38;;;;;;;5.18;75.62;102337.63;5051502;28;20125;-48
2024/01/12 06:24:27;;;;;;;2.47;0.88;;;;;;;5.18;74.44;102329.91;5048005;28;20688;-44
2024/01/12 06:26:55;;;;;;;4.63;1.05;;;;;;;5.18;75.57;102335.03;5048102;28;20056;-51
2024/01/12 06:29:21;;;;;;;5.63;1.35;;;;;;;5.18;74.32;102332.47;5039113;28;20581;-47
2024/01/12 06:31:48;;;;;;;0.98;0.45;;;;;;;5.19;74.47;102339.38;5045895;28;20081;-48
2024/01/12 06:34:16;;;;;;;2.80;0.98;;;;;;;5.18;75.85;102333.38;5043346;28;20056;-49
2024/01/12 06:36:43;;;;;;;2.72;2.45;;;;;;;5.18;74.46;102332.47;5055688;28;20595;-43
2024/01/12 06:39:10;;;;;;;5.90;1.15;;;;;;;5.18;74.66;102338.50;5048225;28;20147;-48
2024/01/12 06:41:46;;;;;;;4.63;1.05;;;;;;;5.16;75.27;102334.09;5052900;28;20053;-45
2024/01/12 06:44:13;;;;;;;1.20;0.57;;;;;;;5.13;75.06;102335.66;5037951;28;20098;-47
2024/01/12 06:46:42;;;;;;;2.65;0.90;;;;;;;5.13;74.72;102337.34;5054391;28;20505;-50
2024/01/12 06:49:11;;;;;;;0.90;0.50;;;;;;;5.13;75.74;102335.66;5053985;28;20055;-46
2024/01/12 06:51:38;;;;;;;1.30;1.20;;;;;;;5.12;74.67;102333.91;5039948;28;20045;-47
2024/01/12 06:54:05;;;;;;;3.58;1.27;;;;;;;5.12;75.31;102333.91;5042521;28;20037;-48
2024/01/12 06:56:32;;;;;;;2.42;1.00;;;;;;;5.12;74.44;102339.03;5047598;28;20077;-47
2024/01/12 06:58:59;;;;;;;4.93;0.70;;;;;;;5.13;74.03;102339.91;5049527;28;20107;-44
2024/01/12 07:01:26;;;;;;;4.40;0.88;;;;;;;5.11;75.29;102334.72;5039123;28;20075;-46
2024/01/12 07:03:53;;;;;;;6.05;0.77;;;;;;;5.11;74.77;102337.28;5039371;28;20513;-53
2024/01/12 07:06:20;;;;;;;4.97;1.02;;;;;;;5.12;75.54;102348.44;5038755;28;20060;-45
2024/01/12 07:08:48;;;;;;;3.55;1.20;;;;;;;5.11;75.14;102337.28;5051142;28;20670;-44
2024/01/12 07:11:15;;;;;;;2.25;1.27;;;;;;;5.09;74.71;102349.16;5040523;28;20502;-49
2024/01/12 07:13:42;;;;;;;0.82;0.43;;;;;;;5.08;74.43;102337.09;5051100;28;20135;-46
2024/01/12 07:16:08;;;;;;;3.80;0.85;;;;;;;5.07;74.55;102345.59;5051822;28;20064;-53
2024/01/12 07:18:35;;;;;;;2.05;0.88;;;;;;;5.09;74.51;102344.00;5049668;28;20045;-46
2024/01/12 07:21:03;;;;;;;8.40;3.47;;;;;;;5.09;75.12;102344.00;5044286;28;20504;-52
2024/01/12 07:23:30;;;;;;;2.90;1.27;;;;;;;5.09;74.91;102344.00;5042753;28;20045;-51
2024/01/12 07:25:58;;;;;;;2.33;0.63;;;;;;;5.10;74.25;102340.63;5044150;28;20069;-50
2024/01/12 07:28:25;;;;;;;2.22;0.77;;;;;;;5.11;75.61;102342.41;5052196;28;20060;-48
2024/01/12 07:30:54;;;;;;;1.20;0.65;;;;;;;5.10;74.55;102347.47;5039654;28;20059;-52
2024/01/12 07:33:22;;;;;;;0.77;0.55;;;;;;;5.10;75.21;102350.91;5044507;28;20049;-45
2024/01/12 07:35:49;;;;;;;2.63;2.33;;;;;;;5.10;75.64;102345.78;5043391;28;20398;-47
2024/01/12 07:38:18;;;;;;;4.30;0.63;;;;;;;5.10;75.20;102340.63;5039743;28;20053;-51
2024/01/12 07:40:45;;;;;;;7.43;1.23;;;;;;;5.10;74.07;102345.78;5039516;28;20049;-45
2024/01/12 07:43:11;;;;;;;4.20;1.27;;;;;;;5.10;74.38;102350.91;5037969;28;20055;-43
2024/01/12 07:45:38;;;;;;;8.75;1.50;;;;;;;5.10;74.42;102350.03;5042180;28;20694;-47
2024/01/12 07:48:05;;;;;;;7.57;2.55;;;;;;;5.10;75.23;102350.91;5049858;28;20045;-49
2024/01/12 07:50:32;;;;;;;6.07;1.52;;;;;;;5.08;75.47;102352.53;5038753;28;20049;-50
2024/01/12 07:52:59;;;;;;;5.70;2.13;;;;;;;5.09;74.68;102351.72;5042730;28;20056;-47
2024/01/12 07:55:27;;;;;;;8.68;2.22;;;;;;;5.10;75.66;102345.78;5041451;28;20047;-45
2024/01/12 07:57:54;;;;;;;3.75;1.38;;;;;;;5.10;74.71;102350.91;5038476;28;20049;-44
2024/01/12 08:00:23;;;;;;;8.70;2.72;;;;;;;5.11;74.62;102349.22;5034067;28;20045;-48
2024/01/12 08:02:52;;;;;;;2.92;0.93;;;;;;;5.07;75.49;102355.84;5040370;28;20047;-48
2024/01/12 08:05:22;;;;;;;9.25;2.63;;;;;;;5.08;74.43;102356.75;5043211;28;20102;-47
2024/01/12 08:07:51;;;;;;;3.70;1.45;;;;;;;5.08;75.52;102357.66;5041655;28;20090;-43
2024/01/12 08:10:18;;;;;;;2.47;1.70;;;;;;;5.09;74.42;102369.69;5036644;28;20405;-45
2024/01/12 08:12:45;;;;;;;3.08;1.40;;;;;;;5.08;74.53;102361.91;5037463;28;20048;-45
2024/01/12 08:15:12;;;;;;;4.60;1.40;;;;;;;5.07;74.90;102361.00;5039503;28;20064;-48
2024/01/12 08:17:40;;;;;;;7.30;0.88;;;;;;;5.06;74.56;102364.38;5046813;28;20051;-46
2024/01/12 08:20:07;;;;;;;4.93;1.23;;;;;;;5.07;75.14;102355.84;5038513;28;20595;-50
2024/01/12 08:22:34;;;;;;;3.15;1.50;;;;;;;5.06;74.65;102359.25;5041961;28;20053;-47
2024/01/12 08:25:01;;;;;;;4.47;0.85;;;;;;;5.06;75.18;102354.09;5040655;28;20041;-53
2024/01/12 08:27:28;;;;;;;1.77;0.63;;;;;;;5.07;75.68;102352.44;5041389;28;20697;-45
2024/01/12 08:29:55;;;;;;;6.38;1.05;;;;;;;5.06;74.93;102348.97;5043564;28;20082;-45
2024/01/12 08:32:21;;;;;;;3.22;1.00;;;;;;;5.06;75.33;102348.97;5043808;28;20079;-48
2024/01/12 08:34:48;;;;;;;2.63;0.85;;;;;;;5.07;75.71;102355.00;5034042;28;20041;-49
2024/01/12 08:37:15;;;;;;;4.70;1.27;;;;;;;5.07;74.52;102350.72;5042083;28;20060;-49
2024/01/12 08:39:42;;;;;;;2.08;1.00;;;;;;;5.07;74.60;102352.44;5041908;28;20095;-50
2024/01/12 08:42:09;;;;;;;2.75;1.33;;;;;;;5.07;74.64;102344.72;5038762;28;20045;-46
2024/01/12 08:44:36;;;;;;;6.13;1.27;;;;;;;5.08;75.95;102342.25;5047704;28;20048;-50
2024/01/12 08:47:03;;;;;;;3.15;1.65;;;;;;;5.06;75.33;102346.41;5042027;28;20049;-47
2024/01/12 08:49:30;;;;;;;3.40;1.45;;;;;;;5.07;75.29;102348.16;5048133;28;20041;-47
2024/01/12 08:51:57;;;;;;;4.03;1.52;;;;;;;5.07;74.87;102350.72;5046891;28;20055;-46
2024/01/12 08:54:26;;;;;;;5.20;1.48;;;;;;;5.08;74.44;102339.66;5038356;28;20063;-48
2024/01/12 08:56:53;;;;;;;8.13;2.88;;;;;;;5.09;75.00;102338.88;5047557;28;20387;-46
2024/01/12 08:59:22;;;;;;;7.75;2.22;;;;;;;5.10;74.44;102335.50;5052462;28;20498;-52
2024/01/12 09:01:49;;;;;;;6.57;2.22;;;;;;;5.10;75.75;102330.34;5050637;28;20068;-46
2024/01/12 09:04:16;;;;;;;7.78;2.40;;;;;;;5.09;75.82;102333.72;5048157;28;20044;-46
2024/01/12 09:06:44;;;;;;;7.43;1.95;;;;;;;5.08;75.21;102347.38;5046847;28;20143;-47
2024/01/12 09:09:11;;;;;;;11.88;2.80;;;;;;;5.10;74.90;102345.78;5042719;28;20059;-50
2024/01/12 09:11:38;;;;;;;5.93;2.75;;;;;;;5.11;74.97;102339.84;5046768;28;20505;-50
2024/01/12 09:14:05;;;;;;;6.43;2.78;;;;;;;5.10;75.27;102334.63;5039745;28;20045;-43
2024/01/12 09:16:35;;;;;;;12.75;3.97;;;;;;;5.11;75.56;102342.41;5044246;28;20505;-48
2024/01/12 09:19:02;;;;;;;8.70;3.60;;;;;;;5.12;74.77;102339.03;5050759;28;20061;-52
2024/01/12 09:21:29;;;;;;;9.75;3.85;;;;;;;5.13;75.68;102345.94;5044296;28;20489;-46
2024/01/12 09:23:56;;;;;;;9.38;3.08;;;;;;;5.13;75.55;102325.41;5042134;28;20073;-47
2024/01/12 09:26:23;;;;;;;11.82;3.33;;;;;;;5.16;74.88;102345.22;5041897;28;20052;-48
2024/01/12 09:28:50;;;;;;;10.40;3.70;;;;;;;5.18;75.14;102337.63;5041111;28;20092;-50
2024/01/12 09:31:17;;;;;;;6.90;2.83;;;;;;;5.19;75.40;102334.25;5043094;28;20060;-43
2024/01/12 09:33:44;;;;;;;9.23;2.20;;;;;;;5.20;75.48;102336.03;5039172;28;20048;-50
2024/01/12 09:36:11;;;;;;;13.43;4.03;;;;;;;5.21;74.57;102338.69;5042508;28;20128;-48
2024/01/12 09:38:38;;;;;;;10.60;3.40;;;;;;;5.21;74.53;102336.13;5045003;28;20052;-53
2024/01/12 09:41:09;;;;;;;7.70;3.28;;;;;;;5.23;74.43;102338.75;5046384;28;20045;-49
2024/01/12 09:43:39;;;;;;;17.55;4.22;;;;;;;5.23;75.38;102339.66;5029795;28;20057;-43
2024/01/12 09:46:08;;;;;;;8.63;3.28;;;;;;;5.24;75.03;102337.97;5040520;28;20243;-50
2024/01/12 09:48:36;;;;;;;7.05;2.95;;;;;;;5.24;75.60;102338.84;5045036;28;24022;-45
2024/01/12 09:51:06;;;;;;;5.63;2.28;;;;;;;5.25;75.41;102340.63;5041508;28;20451;-44
2024/01/12 09:53:36;;;;;;;9.18;2.92;;;;;;;5.25;74.48;102344.88;5045751;28;20495;-48
2024/01/12 09:56:03;;;;;;;5.75;1.65;;;;;;;5.24;74.36;102340.53;5045988;28;20051;-44
2024/01/12 09:58:38;;;;;;;6.38;2.47;;;;;;;5.25;74.94;102344.88;5043954;28;20099;-50
2024/01/12 10:01:08;;;;;;;6.80;2.90;;;;;;;5.20;74.62;102352.31;5041266;28;20046;-47
2024/01/12 10:03:36;;;;;;;6.13;2.42;;;;;;;5.22;74.20;102350.72;5043268;28;20501;-51
2024/01/12 10:06:04;;;;;;;6.47;2.20;;;;;;;5.23;74.19;102346.44;5044525;28;20052;-45
2024/01/12 10:08:40;;;;;;;10.32;2.70;;;;;;;5.24;75.74;102348.25;5038612;28;20048;-51
2024/01/12 10:11:09;;;;;;;4.97;2.00;;;;;;;5.25;74.42;102343.19;5032908;28;20103;-48
2024/01/12 10:13:38;;;;;;;5.22;2.15;;;;;;;5.24;74.68;102343.13;5047395;28;20501;-46
2024/01/12 10:16:07;;;;;;;8.60;1.50;;;;;;;5.26;74.44;102337.25;5041318;28;20044;-46
2024/01/12 10:18:33;;;;;;;8.93;2.63;;;;;;;5.24;74.13;102332.84;5043854;28;20048;-50
2024/01/12 10:21:03;;;;;;;4.40;2.05;;;;;;;5.28;74.31;102335.63;5035008;28;20833;-54
2024/01/12 10:23:31;;;;;;;5.30;2.03;;;;;;;5.30;74.86;102333.16;5039751;28;20049;-51
2024/01/12 10:25:59;;;;;;;7.15;3.17;;;;;;;5.32;73.86;102326.44;5041333;28;20566;-52
2024/01/12 10:28:29;;;;;;;5.00;2.15;;;;;;;5.33;75.00;102323.06;5043658;28;20045;-51
2024/01/12 10:30:56;;;;;;;6.70;2.17;;;;;;;5.35;74.71;102331.75;5041674;28;20061;-52
2024/01/12 10:33:23;;;;;;;10.23;2.78;;;;;;;5.34;75.17;102324.81;5040528;28;20049;-48
2024/01/12 10:35:59;;;;;;;6.28;2.47;;;;;;;5.36;75.40;102325.81;5038511;28;20041;-46
2024/01/12 10:38:28;;;;;;;4.13;1.45;;;;;;;5.37;74.94;102332.69;5036648;28;20057;-49
2024/01/12 10:40:59;;;;;;;5.53;1.75;;;;;;;5.37;74.77;102327.56;5044507;28;20076;-49
2024/01/12 10:43:27;;;;;;;2.65;1.52;;;;;;;5.36;74.19;102319.75;5040772;28;20048;-47
2024/01/12 10:45:58;;;;;;;4.85;1.40;;;;;;;5.37;74.16;102319.84;5044227;28;20041;-48
2024/01/12 10:48:28;;;;;;;5.07;2.65;;;;;;;5.37;74.08;102319.84;5034882;28;20403;-50
2024/01/12 10:51:00;;;;;;;3.17;1.38;;;;;;;5.38;74.32;102321.63;5036771;28;20158;-45
2024/01/12 10:53:39;;;;;;;2.63;1.38;;;;;;;5.38;74.67;102315.59;5038802;28;20053;-50
2024/01/12 10:56:07;;;;;;;2.13;1.58;;;;;;;5.40;75.37;102309.75;5039955;28;20565;-50
2024/01/12 10:58:34;;;;;;;4.18;1.85;;;;;;;5.41;73.87;102310.66;5041901;28;20052;-51
2024/01/12 11:01:02;;;;;;;3.20;1.17;;;;;;;5.43;74.55;102308.16;5037689;28;20928;-49
2024/01/12 11:03:30;;;;;;;4.28;1.48;;;;;;;5.45;73.81;102302.31;5045278;28;20052;-47
2024/01/12 11:05:57;;;;;;;2.50;1.23;;;;;;;5.47;74.95;102304.97;5028781;28;20041;-54
2024/01/12 11:08:28;;;;;;;6.40;1.42;;;;;;;5.52;74.22;102308.66;5044940;28;20048;-52
2024/01/12 11:10:57;;;;;;;2.83;1.45;;;;;;;5.54;74.82;102296.75;5040917;28;20056;-51
2024/01/12 11:13:25;;;;;;;5.03;1.58;;;;;;;5.58;73.81;102298.72;5044489;28;20061;-50
2024/01/12 11:15:53;;;;;;;3.75;1.85;;;;;;;5.60;74.06;102286.81;5036574;28;20041;-51
2024/01/12 11:18:20;;;;;;;2.95;1.75;;;;;;;5.62;74.80;102295.50;5040236;28;20048;-44
2024/01/12 11:20:48;;;;;;;7.93;1.33;;;;;;;5.65;75.01;102293.06;5036681;28;20056;-50
2024/01/12 11:23:14;;;;;;;2.55;1.55;;;;;;;5.68;74.49;102294.06;5048569;28;20127;-47
2024/01/12 11:25:43;;;;;;;3.25;1.23;;;;;;;5.66;73.80;102278.53;5040749;28;20084;-49
2024/01/12 11:28:14;;;;;;;2.85;0.88;;;;;;;5.63;73.87;102279.28;5042076;28;20056;-47
2024/01/12 11:30:42;;;;;;;2.95;1.80;;;;;;;5.66;73.94;102281.13;5038260;28;20049;-46
2024/01/12 11:33:09;;;;;;;2.50;1.63;;;;;;;5.63;74.51;102278.38;5040172;28;20064;-46